Terminal Aerodrome Forecast
Issued by NWS

Home | Current Version | Previous Version | Text Only | Print | Product List | Glossary On
Versions: 1 2 3 4 5 6 7 8 9 10 11 12 13 14 15 16 17 18 19 20 21 22 23 24 25 26 27 28 29 30 31 32 33 34 35
000
FTUS44 KFWD 180313 AAB
TAFAFW
TAF AMD
KAFW 180313Z 1803/1824 03006KT P6SM -RA OVC110
     FM180600 15006KT P6SM SCT030 OVC130
     FM181100 13008KT P6SM BKN009
     FM181800 12008KT P6SM BKN025=

USA.gov is the U.S. government's official web portal to all federal, state and local government web resources and services.